createdAt,value
2022-08-21T00:01:41.594Z,11.70
2022-08-21T00:04:09.255Z,12.00
2022-08-21T00:06:37.435Z,13.00
2022-08-21T00:09:06.831Z,12.50
2022-08-21T00:11:37.685Z,12.80
2022-08-21T00:14:05.557Z,12.30
2022-08-21T00:16:32.814Z,12.20
2022-08-21T00:18:59.655Z,12.00
2022-08-21T00:21:26.630Z,11.90
2022-08-21T00:23:53.645Z,12.30
2022-08-21T00:26:20.692Z,11.90
2022-08-21T00:28:50.067Z,12.50
2022-08-21T00:31:17.980Z,11.80
2022-08-21T00:33:45.106Z,12.30
2022-08-21T00:36:12.575Z,12.40
2022-08-21T00:38:39.519Z,12.50
2022-08-21T00:41:21.143Z,12.70
2022-08-21T00:43:55.120Z,11.90
2022-08-21T00:46:22.162Z,12.60
2022-08-21T00:48:57.162Z,12.20
2022-08-21T00:51:49.136Z,12.70
2022-08-21T00:54:19.057Z,13.50
2022-08-21T00:56:55.468Z,13.00
2022-08-21T00:59:23.081Z,13.30
2022-08-21T01:01:50.595Z,13.10
2022-08-21T01:04:17.994Z,12.90
2022-08-21T01:06:45.760Z,13.90
2022-08-21T01:09:13.457Z,13.00
2022-08-21T01:11:40.785Z,14.20
2022-08-21T01:14:07.841Z,14.50
2022-08-21T01:16:34.781Z,14.50
2022-08-21T01:19:01.833Z,14.80
2022-08-21T01:21:29.398Z,13.50
2022-08-21T01:23:57.075Z,14.00
2022-08-21T01:26:33.722Z,13.50
2022-08-21T01:29:03.056Z,13.60
2022-08-21T01:31:30.310Z,14.30
2022-08-21T01:33:57.370Z,13.50
2022-08-21T01:36:24.623Z,13.90
2022-08-21T01:38:51.498Z,14.10
2022-08-21T01:41:18.624Z,14.20
2022-08-21T01:43:46.191Z,13.70
2022-08-21T01:46:13.448Z,15.10
2022-08-21T01:48:40.834Z,14.20
2022-08-21T01:51:07.778Z,15.10
2022-08-21T01:53:36.803Z,14.70
2022-08-21T01:56:05.642Z,14.40
2022-08-21T01:58:39.352Z,13.50
2022-08-21T02:01:06.992Z,14.30
2022-08-21T02:03:36.177Z,14.90
2022-08-21T02:06:08.037Z,14.80
2022-08-21T02:08:35.242Z,15.70
2022-08-21T02:11:02.500Z,14.60
2022-08-21T02:13:29.610Z,14.50
2022-08-21T02:15:56.807Z,15.60
2022-08-21T02:18:24.471Z,14.50
2022-08-21T02:20:55.756Z,14.80
2022-08-21T02:23:26.534Z,15.30
2022-08-21T02:26:05.645Z,16.10
2022-08-21T02:28:32.961Z,16.70
2022-08-21T02:30:59.829Z,15.60
2022-08-21T02:33:27.159Z,16.10
2022-08-21T02:35:54.433Z,16.00
2022-08-21T02:38:34.407Z,15.40
2022-08-21T02:41:01.553Z,15.50
2022-08-21T02:43:28.995Z,16.70
2022-08-21T02:45:57.304Z,16.20
2022-08-21T02:48:26.054Z,15.80
2022-08-21T02:50:55.106Z,16.50
2022-08-21T02:53:22.419Z,16.20
2022-08-21T02:55:50.295Z,17.00
2022-08-21T02:58:18.977Z,16.90
2022-08-21T03:00:46.025Z,16.50
2022-08-21T03:03:13.689Z,16.80
2022-08-21T03:05:40.573Z,16.70
2022-08-21T03:08:11.681Z,17.20
2022-08-21T03:10:40.910Z,16.50
2022-08-21T03:13:08.373Z,17.40
2022-08-21T03:15:35.394Z,17.30
2022-08-21T03:18:02.587Z,17.30
2022-08-21T03:20:30.019Z,17.20
2022-08-21T03:22:57.319Z,15.70
2022-08-21T03:25:37.980Z,18.10
2022-08-21T03:28:13.777Z,17.70
2022-08-21T03:30:42.610Z,18.10
2022-08-21T03:33:10.399Z,17.10
2022-08-21T03:35:41.631Z,18.80
2022-08-21T03:38:10.992Z,18.70
2022-08-21T03:40:38.711Z,18.70
2022-08-21T03:43:05.821Z,18.70
2022-08-21T03:45:33.632Z,18.10
2022-08-21T03:48:02.732Z,19.00
2022-08-21T03:50:31.543Z,18.20
2022-08-21T03:52:59.195Z,19.90
2022-08-21T03:55:27.373Z,18.90
2022-08-21T03:57:54.459Z,19.00
2022-08-21T04:00:21.693Z,19.00
2022-08-21T04:02:48.844Z,19.80
2022-08-21T04:05:28.322Z,18.90
2022-08-21T04:08:03.365Z,19.10
2022-08-21T04:10:32.364Z,19.70
2022-08-21T04:12:59.461Z,19.20
2022-08-21T04:15:27.255Z,20.20
2022-08-21T04:17:54.719Z,19.40
2022-08-21T04:20:23.207Z,21.50
2022-08-21T04:22:51.765Z,20.50
2022-08-21T04:25:20.077Z,22.00
2022-08-21T04:27:47.028Z,20.80
2022-08-21T04:30:14.549Z,20.90
2022-08-21T04:32:45.139Z,22.40
2022-08-21T04:35:12.702Z,22.00
2022-08-21T04:37:42.268Z,22.20
2022-08-21T04:40:11.343Z,24.20
2022-08-21T04:42:50.671Z,23.50
2022-08-21T04:45:28.980Z,22.20
2022-08-21T04:47:57.368Z,23.30
2022-08-21T04:50:31.285Z,24.10
2022-08-21T04:52:58.357Z,22.40
2022-08-21T04:55:25.497Z,23.80
2022-08-21T04:57:54.801Z,23.00
2022-08-21T05:00:22.057Z,23.70
2022-08-21T05:02:49.213Z,23.40
2022-08-21T05:05:17.054Z,22.10
2022-08-21T05:07:44.779Z,20.40
2022-08-21T05:10:13.771Z,21.20
2022-08-21T05:12:43.035Z,20.30
2022-08-21T05:15:13.460Z,20.50
2022-08-21T05:17:42.183Z,23.20
2022-08-21T05:20:10.716Z,22.90
2022-08-21T05:22:37.723Z,23.00
2022-08-21T05:25:10.202Z,21.90
2022-08-21T05:27:39.699Z,22.70
2022-08-21T05:30:10.764Z,22.40
2022-08-21T05:32:38.015Z,22.10
2022-08-21T05:35:06.115Z,23.90
2022-08-21T05:37:33.651Z,23.80
2022-08-21T05:40:20.122Z,21.40
2022-08-21T05:42:54.450Z,22.30
2022-08-21T05:45:41.944Z,22.40
2022-08-21T05:48:21.744Z,23.40
2022-08-21T05:50:48.792Z,22.90
2022-08-21T05:53:16.144Z,23.50
2022-08-21T05:55:46.164Z,21.90
2022-08-21T05:58:15.089Z,21.40
2022-08-21T06:00:42.629Z,23.50
2022-08-21T06:03:16.418Z,20.30
2022-08-21T06:05:43.239Z,22.20
2022-08-21T06:08:10.315Z,20.20
2022-08-21T06:10:37.365Z,21.40
2022-08-21T06:13:04.314Z,23.30
2022-08-21T06:15:31.263Z,21.30
2022-08-21T06:17:58.213Z,21.60
2022-08-21T06:20:25.163Z,23.00
2022-08-21T06:22:52.177Z,23.20
2022-08-21T06:25:19.982Z,22.90
2022-08-21T06:27:47.646Z,21.50
2022-08-21T06:30:14.803Z,22.20
2022-08-21T06:32:41.754Z,24.70
2022-08-21T06:35:09.312Z,21.60
2022-08-21T06:37:36.364Z,22.40
2022-08-21T06:40:05.792Z,22.00
2022-08-21T06:42:40.121Z,21.00
2022-08-21T06:45:10.766Z,20.60
2022-08-21T06:47:37.905Z,21.30
2022-08-21T06:50:06.111Z,20.70
2022-08-21T06:52:33.107Z,21.30
2022-08-21T06:55:00.567Z,19.80
2022-08-21T06:57:28.230Z,19.60
2022-08-21T06:59:55.696Z,19.40
2022-08-21T07:02:23.560Z,18.80
2022-08-21T07:04:50.436Z,20.10
2022-08-21T07:07:17.549Z,17.40
2022-08-21T07:09:44.599Z,17.70
2022-08-21T07:12:11.992Z,16.50
2022-08-21T07:14:39.412Z,17.60
2022-08-21T07:17:06.288Z,16.50
2022-08-21T07:19:33.206Z,15.00
2022-08-21T07:22:02.096Z,15.80
2022-08-21T07:24:29.280Z,17.20
2022-08-21T07:26:56.312Z,15.50
2022-08-21T07:29:23.253Z,14.70
2022-08-21T07:31:50.197Z,14.10
2022-08-21T07:34:17.744Z,13.70
2022-08-21T07:36:44.909Z,13.50
2022-08-21T07:39:12.262Z,13.00
2022-08-21T07:41:39.307Z,12.00
2022-08-21T07:44:06.564Z,11.60
2022-08-21T07:46:33.707Z,11.50
2022-08-21T07:49:00.665Z,12.10
2022-08-21T07:51:28.828Z,12.20
2022-08-21T07:53:58.751Z,11.00
2022-08-21T07:56:26.092Z,10.60
2022-08-21T07:58:53.042Z,10.60
2022-08-21T08:01:21.377Z,11.40
2022-08-21T08:03:49.130Z,10.90
2022-08-21T08:06:17.725Z,11.10
2022-08-21T08:08:44.701Z,10.50
2022-08-21T08:11:12.158Z,10.70
2022-08-21T08:13:41.448Z,9.60
2022-08-21T08:16:08.604Z,10.30
2022-08-21T08:18:35.650Z,9.80
2022-08-21T08:21:02.630Z,8.80
2022-08-21T08:23:32.016Z,9.20
2022-08-21T08:26:00.498Z,8.50
2022-08-21T08:28:28.449Z,9.00
2022-08-21T08:30:55.694Z,8.10
2022-08-21T08:33:22.630Z,8.00
2022-08-21T08:35:50.618Z,8.40
2022-08-21T08:38:21.385Z,8.60
2022-08-21T08:41:18.450Z,7.70
2022-08-21T08:43:55.771Z,8.30
2022-08-21T08:46:46.816Z,8.30
2022-08-21T08:49:41.721Z,7.70
2022-08-21T08:52:20.341Z,7.80
2022-08-21T08:54:57.048Z,7.60
2022-08-21T08:57:24.782Z,7.30
2022-08-21T08:59:56.794Z,7.30
2022-08-21T09:02:28.625Z,6.60
2022-08-21T09:04:55.619Z,7.40
2022-08-21T09:07:54.086Z,7.50
2022-08-21T09:10:24.397Z,7.10
2022-08-21T09:13:01.484Z,7.50
2022-08-21T09:16:04.967Z,7.70
2022-08-21T09:18:44.823Z,5.70
2022-08-21T09:21:17.603Z,6.20
2022-08-21T09:24:12.132Z,5.70
2022-08-21T09:26:51.844Z,6.70
2022-08-21T09:29:19.512Z,7.40
2022-08-21T09:31:47.072Z,7.00
2022-08-21T09:34:14.946Z,6.60
2022-08-21T09:36:44.788Z,6.00
2022-08-21T09:39:12.838Z,6.50
2022-08-21T09:41:40.706Z,6.50
2022-08-21T09:44:08.977Z,5.70
2022-08-21T09:46:36.846Z,6.00
2022-08-21T09:49:04.729Z,5.40
2022-08-21T09:51:35.946Z,6.20
2022-08-21T09:54:06.185Z,6.80
2022-08-21T09:59:36.880Z,6.30
2022-08-21T10:02:28.827Z,6.90
2022-08-21T10:05:02.078Z,6.90
2022-08-21T10:07:31.160Z,6.20
2022-08-21T10:10:15.148Z,6.70
2022-08-21T10:12:57.782Z,6.00
2022-08-21T10:15:46.555Z,7.00
2022-08-21T10:18:23.744Z,6.10
2022-08-21T10:21:04.152Z,6.20
2022-08-21T10:23:43.259Z,6.20
2022-08-21T10:26:26.867Z,6.20
2022-08-21T10:29:12.246Z,6.30
2022-08-21T10:31:48.406Z,6.40
2022-08-21T10:34:25.220Z,5.20
2022-08-21T10:37:20.193Z,4.70
2022-08-21T10:39:54.890Z,5.30
2022-08-21T10:43:00.715Z,5.20
2022-08-21T10:45:49.647Z,5.50
2022-08-21T10:48:49.367Z,5.80
2022-08-21T10:51:29.080Z,3.80
2022-08-21T10:54:20.294Z,3.10
2022-08-21T10:56:51.478Z,3.70
2022-08-21T10:59:53.038Z,4.60
2022-08-21T11:02:42.005Z,4.30
2022-08-21T11:05:15.332Z,4.50
2022-08-21T11:08:14.301Z,4.10
2022-08-21T11:10:51.335Z,4.60
2022-08-21T11:13:52.432Z,4.50
2022-08-21T11:16:42.730Z,4.40
2022-08-21T11:19:21.571Z,4.70
2022-08-21T11:22:03.694Z,4.60
2022-08-21T11:24:45.783Z,4.60
2022-08-21T11:27:34.631Z,3.90
2022-08-21T11:30:01.894Z,4.40
2022-08-21T11:32:38.191Z,4.40
2022-08-21T11:35:15.149Z,4.80
2022-08-21T11:37:57.961Z,4.20
2022-08-21T11:40:43.594Z,3.80
2022-08-21T11:43:17.449Z,3.80
2022-08-21T11:45:55.135Z,4.00
2022-08-21T11:48:41.958Z,4.40
2022-08-21T11:51:20.900Z,4.10
2022-08-21T11:53:54.370Z,4.80
2022-08-21T11:56:30.046Z,4.50
2022-08-21T11:59:03.855Z,5.40
2022-08-21T12:01:36.891Z,5.30
2022-08-21T12:04:18.110Z,5.10
2022-08-21T12:06:46.700Z,5.00
2022-08-21T12:09:28.184Z,5.30
2022-08-21T12:12:07.212Z,5.50
2022-08-21T12:14:42.959Z,5.00
2022-08-21T12:17:16.357Z,5.10
2022-08-21T12:19:46.172Z,5.60
2022-08-21T12:22:14.386Z,5.80
2022-08-21T12:24:43.038Z,5.40
2022-08-21T12:27:43.065Z,5.30
2022-08-21T12:30:38.486Z,4.30
2022-08-21T12:33:21.718Z,5.00
2022-08-21T12:35:50.590Z,5.00
2022-08-21T12:38:51.566Z,4.30
2022-08-21T12:41:29.573Z,3.80
2022-08-21T12:44:06.563Z,4.00
2022-08-21T12:46:40.025Z,4.30
2022-08-21T12:49:35.985Z,3.80
2022-08-21T12:52:04.062Z,3.90
2022-08-21T12:54:33.365Z,4.10
2022-08-21T12:57:05.743Z,3.90
2022-08-21T12:59:32.894Z,4.00
2022-08-21T13:02:01.413Z,3.50
2022-08-21T13:04:38.478Z,4.20
2022-08-21T13:07:13.057Z,3.50
2022-08-21T13:10:19.060Z,3.80
2022-08-21T13:12:46.562Z,3.10
2022-08-21T13:15:13.573Z,3.70
2022-08-21T13:17:44.941Z,2.60
2022-08-21T13:20:27.063Z,3.40
2022-08-21T13:22:54.923Z,3.10
2022-08-21T13:25:23.015Z,2.70
2022-08-21T13:28:01.978Z,2.20
2022-08-21T13:30:30.186Z,2.40
2022-08-21T13:32:59.970Z,2.50
2022-08-21T13:35:37.498Z,3.00
2022-08-21T13:38:05.572Z,3.10
2022-08-21T13:40:43.994Z,2.90
2022-08-21T13:43:18.347Z,2.70
2022-08-21T13:45:52.016Z,3.00
2022-08-21T13:48:19.270Z,3.20
2022-08-21T13:50:46.215Z,3.20
2022-08-21T13:53:30.367Z,3.60
2022-08-21T13:56:00.765Z,3.30
2022-08-21T13:58:34.331Z,3.80
2022-08-21T14:01:01.964Z,4.00
2022-08-21T14:03:45.089Z,3.30
2022-08-21T14:06:18.283Z,3.60
2022-08-21T14:08:50.576Z,3.20
2022-08-21T14:11:17.605Z,4.10
2022-08-21T14:13:47.762Z,3.10
2022-08-21T14:16:18.057Z,3.70
2022-08-21T14:18:49.305Z,4.10
2022-08-21T14:21:42.603Z,4.10
2022-08-21T14:24:26.004Z,3.60
2022-08-21T14:27:01.731Z,3.70
2022-08-21T14:29:32.670Z,3.10
2022-08-21T14:32:01.903Z,3.40
2022-08-21T14:37:03.588Z,3.50
2022-08-21T14:39:31.141Z,4.40
2022-08-21T14:41:58.598Z,4.60
2022-08-21T14:44:25.560Z,3.60
2022-08-21T14:46:56.352Z,3.20
2022-08-21T14:49:28.961Z,3.50
2022-08-21T14:52:00.111Z,2.70
2022-08-21T14:54:32.201Z,3.90
2022-08-21T14:57:10.283Z,3.20
2022-08-21T14:59:37.548Z,3.50
2022-08-21T15:02:05.568Z,3.60
2022-08-21T15:04:33.683Z,3.50
2022-08-21T15:07:00.938Z,3.70
2022-08-21T15:09:28.088Z,3.40
2022-08-21T15:11:57.493Z,3.40
2022-08-21T15:14:27.199Z,3.50
2022-08-21T15:16:54.590Z,3.50
2022-08-21T15:19:22.321Z,3.30
2022-08-21T15:21:49.884Z,3.10
2022-08-21T15:24:16.829Z,4.40
2022-08-21T15:26:43.985Z,3.60
2022-08-21T15:29:11.239Z,3.30
2022-08-21T15:31:40.026Z,3.50
2022-08-21T15:34:07.386Z,3.80
2022-08-21T15:36:34.442Z,4.40
2022-08-21T15:39:01.621Z,3.70
2022-08-21T15:41:28.750Z,2.90
2022-08-21T15:43:56.107Z,2.70
2022-08-21T15:46:23.258Z,2.40
2022-08-21T15:48:50.514Z,3.50
2022-08-21T15:51:17.875Z,3.30
2022-08-21T15:53:45.521Z,3.40
2022-08-21T15:56:18.564Z,2.70
2022-08-21T15:58:46.191Z,3.30
2022-08-21T16:01:13.930Z,3.20
2022-08-21T16:03:41.538Z,3.40
2022-08-21T16:06:08.573Z,3.60
2022-08-21T16:08:35.514Z,2.80
2022-08-21T16:11:02.970Z,2.80
2022-08-21T16:13:38.006Z,3.70
2022-08-21T16:16:05.872Z,4.90
2022-08-21T16:18:32.818Z,3.20
2022-08-21T16:20:59.971Z,3.30
2022-08-21T16:23:27.046Z,3.20
2022-08-21T16:25:54.065Z,3.30
2022-08-21T16:28:21.725Z,3.60
2022-08-21T16:30:49.794Z,3.80
2022-08-21T16:33:35.581Z,3.50
2022-08-21T16:36:05.708Z,4.60
2022-08-21T16:38:33.158Z,3.60
2022-08-21T16:41:08.457Z,4.10
2022-08-21T16:43:36.062Z,3.70
2022-08-21T16:46:03.592Z,4.10
2022-08-21T16:48:31.279Z,3.60
2022-08-21T16:50:58.224Z,4.30
2022-08-21T16:53:26.197Z,5.00
2022-08-21T16:55:53.207Z,4.60
2022-08-21T16:58:31.403Z,4.70
2022-08-21T17:00:59.271Z,4.70
2022-08-21T17:03:29.337Z,4.70
2022-08-21T17:05:56.503Z,4.60
2022-08-21T17:08:23.448Z,4.30
2022-08-21T17:10:50.909Z,4.60
2022-08-21T17:13:18.468Z,3.90
2022-08-21T17:15:45.831Z,4.30
2022-08-21T17:18:17.617Z,4.00
2022-08-21T17:20:44.642Z,4.50
2022-08-21T17:23:11.696Z,4.00
2022-08-21T17:25:40.131Z,3.70
2022-08-21T17:28:07.433Z,4.70
2022-08-21T17:30:34.587Z,4.40
2022-08-21T17:33:01.742Z,4.30
2022-08-21T17:35:28.897Z,4.80
2022-08-21T17:37:55.948Z,5.10
2022-08-21T17:40:24.908Z,4.40
2022-08-21T17:42:52.017Z,3.80
2022-08-21T17:45:19.757Z,4.30
2022-08-21T17:47:47.023Z,3.80
2022-08-21T17:50:15.057Z,4.70
2022-08-21T17:52:44.703Z,4.80
2022-08-21T17:55:12.987Z,4.80
2022-08-21T17:57:41.462Z,4.60
2022-08-21T18:00:10.865Z,4.70
2022-08-21T18:02:38.783Z,5.20
2022-08-21T18:05:07.106Z,5.70
2022-08-21T18:07:34.172Z,5.10
2022-08-21T18:10:01.977Z,5.30
2022-08-21T18:12:29.768Z,5.10
2022-08-21T18:14:56.959Z,5.80
2022-08-21T18:17:24.726Z,4.70
2022-08-21T18:19:51.777Z,5.70
2022-08-21T18:22:18.676Z,7.70
2022-08-21T18:24:48.782Z,5.90
2022-08-21T18:27:16.317Z,5.90
2022-08-21T18:29:47.578Z,5.30
2022-08-21T18:32:30.513Z,5.60
2022-08-21T18:35:00.754Z,5.80
2022-08-21T18:37:28.071Z,5.70
2022-08-21T18:39:55.045Z,6.50
2022-08-21T18:42:29.049Z,5.80
2022-08-21T18:45:01.410Z,5.30
2022-08-21T18:47:37.471Z,6.20
2022-08-21T18:50:05.887Z,5.90
2022-08-21T18:52:43.405Z,5.40
2022-08-21T18:55:26.414Z,6.10
2022-08-21T18:57:55.489Z,5.60
2022-08-21T19:00:25.718Z,6.10
2022-08-21T19:02:52.968Z,5.90
2022-08-21T19:05:20.946Z,5.90
2022-08-21T19:07:50.662Z,5.40
2022-08-21T19:10:28.886Z,5.60
2022-08-21T19:12:58.224Z,5.80
2022-08-21T19:15:26.085Z,6.00
2022-08-21T19:17:54.437Z,5.60
2022-08-21T19:20:25.855Z,5.90
2022-08-21T19:22:56.482Z,6.60
2022-08-21T19:25:33.667Z,6.10
2022-08-21T19:28:11.007Z,5.90
2022-08-21T19:30:45.762Z,6.20
2022-08-21T19:33:23.674Z,6.30
2022-08-21T19:35:52.639Z,6.60
2022-08-21T19:38:20.932Z,6.40
2022-08-21T19:40:49.011Z,6.80
2022-08-21T19:43:16.269Z,6.50
2022-08-21T19:45:50.011Z,7.50
2022-08-21T19:48:19.285Z,6.60
2022-08-21T19:50:46.230Z,7.60
2022-08-21T19:53:13.633Z,6.60
2022-08-21T19:55:44.843Z,6.60
2022-08-21T19:58:36.780Z,6.90
2022-08-21T20:01:05.687Z,6.50
2022-08-21T20:03:39.590Z,6.20
2022-08-21T20:06:11.146Z,7.00
2022-08-21T20:08:38.603Z,6.90
2022-08-21T20:11:05.858Z,6.90
2022-08-21T20:13:34.239Z,6.50
2022-08-21T20:16:05.950Z,6.50
2022-08-21T20:18:34.219Z,7.00
2022-08-21T20:21:02.357Z,6.90
2022-08-21T20:23:34.191Z,7.10
2022-08-21T20:26:01.470Z,7.80
2022-08-21T20:28:28.861Z,6.40
2022-08-21T20:30:56.500Z,7.00
2022-08-21T20:33:23.813Z,7.00
2022-08-21T20:35:52.448Z,6.40
2022-08-21T20:38:19.911Z,6.50
2022-08-21T20:40:49.433Z,6.90
2022-08-21T20:43:16.762Z,7.00
2022-08-21T20:45:43.731Z,6.60
2022-08-21T20:48:13.957Z,6.70
2022-08-21T20:50:44.903Z,7.00
2022-08-21T20:53:14.711Z,20.20
2022-08-21T20:55:47.806Z,7.00
2022-08-21T20:58:32.571Z,6.70
2022-08-21T21:01:04.456Z,6.70
2022-08-21T21:06:05.188Z,6.10
2022-08-21T21:08:46.805Z,7.20
2022-08-21T21:11:17.735Z,7.60
2022-08-21T21:13:57.019Z,6.80
2022-08-21T21:16:31.501Z,6.20
2022-08-21T21:19:10.997Z,6.10
2022-08-21T21:21:40.141Z,6.80
2022-08-21T21:24:20.740Z,6.60
2022-08-21T21:26:59.235Z,6.00
2022-08-21T21:29:35.074Z,5.90
2022-08-21T21:32:04.035Z,7.00
2022-08-21T21:34:35.028Z,6.20
2022-08-21T21:37:05.907Z,6.90
2022-08-21T21:40:02.987Z,6.60
2022-08-21T21:42:54.451Z,7.80
2022-08-21T21:45:41.367Z,6.40
2022-08-21T21:48:21.286Z,7.20
2022-08-21T21:51:27.693Z,7.10
2022-08-21T21:54:17.169Z,6.80
2022-08-21T21:57:03.371Z,6.00
2022-08-21T21:59:36.156Z,6.80
2022-08-21T22:02:15.905Z,7.80
2022-08-21T22:05:03.641Z,5.90
2022-08-21T22:07:47.791Z,6.50
2022-08-21T22:10:33.993Z,7.50
2022-08-21T22:13:13.438Z,6.40
2022-08-21T22:15:53.295Z,6.70
2022-08-21T22:18:23.726Z,6.60
2022-08-21T22:21:05.624Z,7.20
2022-08-21T22:23:35.749Z,7.40
2022-08-21T22:26:07.407Z,7.40
2022-08-21T22:28:37.633Z,6.50
2022-08-21T22:31:27.006Z,7.00
2022-08-21T22:34:18.230Z,6.60
2022-08-21T22:36:56.563Z,6.30
2022-08-21T22:39:38.611Z,6.10
2022-08-21T22:45:02.954Z,8.00
2022-08-21T22:47:42.089Z,8.10
2022-08-21T22:50:18.253Z,7.30
2022-08-21T22:52:48.586Z,7.60
2022-08-21T22:55:34.989Z,7.90
2022-08-21T22:58:03.982Z,7.40
2022-08-21T23:00:43.930Z,8.30
2022-08-21T23:03:43.805Z,8.00
2022-08-21T23:06:33.929Z,7.70
2022-08-21T23:09:01.516Z,6.80
2022-08-21T23:11:41.067Z,8.20
2022-08-21T23:14:14.229Z,7.30
2022-08-21T23:16:50.714Z,7.20
2022-08-21T23:19:23.707Z,8.10
2022-08-21T23:22:19.635Z,7.40
2022-08-21T23:24:49.981Z,8.10
2022-08-21T23:27:32.571Z,8.20
2022-08-21T23:30:18.881Z,6.90
2022-08-21T23:36:36.031Z,7.40
2022-08-21T23:39:12.604Z,8.30
2022-08-21T23:41:53.889Z,7.50
2022-08-21T23:44:40.891Z,8.70
2022-08-21T23:47:34.583Z,8.00
2022-08-21T23:50:14.493Z,8.90
2022-08-21T23:52:44.591Z,7.50
2022-08-21T23:55:31.780Z,8.60
2022-08-21T23:58:32.727Z,8.00
